Welcome to Northern Hawkes Bay. New Zealand.
PWS Header
      nz Flag



Hit Counter


W3C Valid W3C Valid logo


    Wairoa

Select any of the Stations below to visit their websites.










Historic Data from Weather Underground
Select the location of interest below. Wairoa is the default. Please have patience, this Data is slow to load in.
Northern Hawkes Bay Historical Data
Daily Summary for October 15, 2017 Units:  Metric    English   Both
« Previous Day
Next Day »
Daily Weekly Monthly Yearly Custom
  High: Low: Average:
Temperature: 19.8 °C 8.0 °C 13.6 °C
Dew Point: 10.7 °C 2.9 °C 7.7 °C
Humidity: 99% 46% 69%
Wind Speed: 25.6km/h 0.0km/h 5.4km/h
Wind Gust: 45.4km/h - -
Wind- - West
Pressure: 1016.1 hPa 1009.4 hPa -
Precipitation: 3.0 mm    
Historical Graphs
 
 
Tabular Data for October 15, 2017
Time Temperature Dew Point Pressure Wind Wind Speed Wind Gust Humidity Rainfall Rate (Hourly) solar
00:01 11.0 °C 8.6 °C 1010.4 hPa Calm   2.6 km/h 85% 0.0 mm 0 W/m2
00:07 10.9 °C 8.7 °C 1010.4 hPa Calm   2.6 km/h 86% 0.0 mm 0 W/m2
00:12 10.9 °C 8.8 °C 1010.4 hPa Calm   2.6 km/h 87% 0.0 mm 0 W/m2
00:17 10.9 °C 8.8 °C 1010.4 hPa North 1.1 km/h 5.0 km/h 87% 0.0 mm 0 W/m2
00:22 10.7 °C 8.6 °C 1010.4 hPa Calm   5.0 km/h 87% 0.0 mm 0 W/m2
00:27 10.6 °C 8.6 °C 1010.4 hPa Calm   2.6 km/h 87% 0.0 mm 0 W/m2
00:32 10.4 °C 8.3 °C 1010.4 hPa Calm   1.1 km/h 87% 0.0 mm 0 W/m2
00:37 10.3 °C 8.2 °C 1010.4 hPa Calm   1.1 km/h 87% 0.0 mm 0 W/m2
00:42 10.1 °C 8.1 °C 1010.4 hPa Calm     87% 0.0 mm 0 W/m2
00:47 9.9 °C 8.0 °C 1010.0 hPa Calm     88% 0.0 mm 0 W/m2
00:52 10.1 °C 8.2 °C 1010.7 hPa Calm   1.1 km/h 88% 0.0 mm 0 W/m2
00:57 10.2 °C 8.1 °C 1010.4 hPa NNE 1.1 km/h 3.5 km/h 87% 0.0 mm 0 W/m2
01:02 10.5 °C 7.9 °C 1010.4 hPa North 7.2 km/h 13.4 km/h 84% 0.0 mm 0 W/m2
01:07 11.7 °C 6.8 °C 1010.4 hPa North 7.2 km/h 13.4 km/h 72% 0.0 mm 0 W/m2
01:12 13.3 °C 4.7 °C 1010.4 hPa NNW 7.2 km/h 17.2 km/h 56% 0.0 mm 0 W/m2
01:17 14.2 °C 3.3 °C 1010.4 hPa NW 8.7 km/h 17.2 km/h 48% 0.0 mm 0 W/m2
01:22 14.6 °C 3.1 °C 1010.4 hPa NW 8.7 km/h 18.3 km/h 46% 0.0 mm 0 W/m2
01:27 14.7 °C 3.2 °C 1010.4 hPa NNW 6.1 km/h 18.3 km/h 46% 0.0 mm 0 W/m2
01:32 14.4 °C 2.9 °C 1010.4 hPa NW 5.0 km/h 15.8 km/h 46% 0.0 mm 0 W/m2
01:37 14.2 °C 3.3 °C 1010.4 hPa NW 3.5 km/h 12.2 km/h 48% 0.0 mm 0 W/m2
01:42 13.8 °C 3.6 °C 1010.4 hPa NNW 2.6 km/h 9.7 km/h 50% 0.0 mm 0 W/m2
01:47 13.6 °C 3.9 °C 1010.4 hPa NNW 3.5 km/h 9.7 km/h 52% 0.0 mm 0 W/m2
01:52 13.3 °C 4.2 °C 1010.4 hPa NNW 5.0 km/h 9.7 km/h 54% 0.0 mm 0 W/m2
01:57 13.4 °C 4.3 °C 1010.4 hPa NW 6.1 km/h 14.8 km/h 54% 0.0 mm 0 W/m2
02:02 13.4 °C 4.6 °C 1010.4 hPa NW 7.2 km/h 14.8 km/h 55% 0.0 mm 0 W/m2
02:07 13.4 °C 4.6 °C 1010.4 hPa NNW 11.1 km/h 14.8 km/h 55% 0.0 mm 0 W/m2
02:12 13.8 °C 4.9 °C 1010.4 hPa NW 11.1 km/h 15.8 km/h 55% 0.0 mm 0 W/m2
02:17 13.9 °C 4.7 °C 1010.4 hPa NNW 5.0 km/h 15.8 km/h 54% 0.0 mm 0 W/m2
02:22 13.8 °C 4.7 °C 1010.4 hPa NNW 9.7 km/h 17.2 km/h 54% 0.0 mm 0 W/m2
02:27 13.8 °C 4.7 °C 1010.4 hPa NNW 3.5 km/h 17.2 km/h 54% 0.0 mm 0 W/m2
02:32 13.6 °C 4.7 °C 1010.4 hPa NNW 6.1 km/h 14.8 km/h 55% 0.0 mm 0 W/m2
02:37 13.4 °C 4.6 °C 1010.0 hPa NNW 6.1 km/h 11.1 km/h 55% 0.0 mm 0 W/m2
02:42 13.4 °C 4.6 °C 1010.0 hPa NNW 8.7 km/h 13.4 km/h 55% 0.0 mm 0 W/m2
02:47 13.5 °C 4.7 °C 1009.7 hPa North 11.1 km/h 15.8 km/h 55% 0.0 mm 0 W/m2
02:52 13.3 °C 4.7 °C 1009.7 hPa NNW 8.7 km/h 15.8 km/h 56% 0.0 mm 0 W/m2
02:57 12.9 °C 4.8 °C 1010.0 hPa NNW 9.7 km/h 15.8 km/h 58% 0.0 mm 0 W/m2
03:02 12.7 °C 4.9 °C 1009.7 hPa North 7.2 km/h 15.8 km/h 59% 0.0 mm 0 W/m2
03:07 12.6 °C 5.1 °C 1010.0 hPa North 9.7 km/h 15.8 km/h 60% 0.0 mm 0 W/m2
03:12 12.4 °C 4.8 °C 1009.7 hPa NNW 8.7 km/h 15.8 km/h 60% 0.0 mm 0 W/m2
03:17 12.4 °C 4.8 °C 1010.0 hPa NNW 8.7 km/h 15.8 km/h 60% 0.0 mm 0 W/m2
03:22 12.3 °C 4.8 °C 1009.7 hPa NNW 9.7 km/h 15.8 km/h 60% 0.0 mm 0 W/m2
03:27 12.4 °C 4.6 °C 1010.0 hPa NW 9.7 km/h 17.2 km/h 59% 0.0 mm 0 W/m2
03:32 12.6 °C 4.3 °C 1010.0 hPa WNW 11.1 km/h 18.3 km/h 57% 0.0 mm 0 W/m2
03:37 12.8 °C 4.2 °C 1009.7 hPa NNW 8.7 km/h 18.3 km/h 56% 0.0 mm 0 W/m2
03:42 12.7 °C 4.2 °C 1009.7 hPa North 9.7 km/h 18.3 km/h 56% 0.0 mm 0 W/m2
03:47 12.8 °C 4.2 °C 1009.7 hPa NNW 12.2 km/h 19.5 km/h 56% 0.0 mm 0 W/m2
03:52 13.0 °C 4.2 °C 1009.7 hPa NNW 9.7 km/h 21.9 km/h 55% 0.0 mm 0 W/m2
03:57 13.0 °C 3.9 °C 1009.7 hPa NNW 12.2 km/h 21.9 km/h 54% 0.0 mm 0 W/m2
04:02 13.1 °C 4.0 °C 1009.7 hPa North 12.2 km/h 21.9 km/h 54% 0.0 mm 0 W/m2
04:07 13.1 °C 4.0 °C 1009.7 hPa NNW 12.2 km/h 18.3 km/h 54% 0.0 mm 0 W/m2
04:12 13.1 °C 4.0 °C 1010.0 hPa NNW 5.0 km/h 19.5 km/h 54% 0.0 mm 0 W/m2
04:17 13.0 °C 4.2 °C 1010.0 hPa NNW 9.7 km/h 19.5 km/h 55% 0.0 mm 0 W/m2
04:22 12.9 °C 3.8 °C 1009.7 hPa NNW 9.7 km/h 17.2 km/h 54% 0.0 mm 0 W/m2
04:27 12.9 °C 4.1 °C 1009.7 hPa NNW 8.7 km/h 19.5 km/h 55% 0.0 mm 0 W/m2
04:32 12.8 °C 4.2 °C 1009.7 hPa NNW 5.0 km/h 19.5 km/h 56% 0.0 mm 0 W/m2
04:37 12.6 °C 4.3 °C 1009.7 hPa NNW 11.1 km/h 18.3 km/h 57% 0.0 mm 0 W/m2
04:42 12.6 °C 4.6 °C 1009.7 hPa North 9.7 km/h 18.3 km/h 58% 0.0 mm 0 W/m2
04:47 12.5 °C 4.9 °C 1009.7 hPa North 8.7 km/h 18.3 km/h 60% 0.0 mm 0 W/m2
04:52 12.4 °C 5.1 °C 1009.7 hPa North 8.7 km/h 18.3 km/h 61% 0.0 mm 0 W/m2
04:57 12.3 °C 5.2 °C 1009.4 hPa North 8.7 km/h 15.8 km/h 62% 0.0 mm 0 W/m2
05:02 12.3 °C 5.4 °C 1009.7 hPa North 12.2 km/h 20.9 km/h 63% 0.0 mm 0 W/m2
05:07 12.3 °C 5.7 °C 1009.7 hPa NNW 12.2 km/h 20.9 km/h 64% 0.0 mm 0 W/m2
05:12 12.3 °C 5.9 °C 1009.7 hPa NNW 9.7 km/h 21.9 km/h 65% 0.0 mm 0 W/m2
05:18 12.1 °C 5.9 °C 1009.7 hPa NNW 7.2 km/h 21.9 km/h 66% 0.0 mm 0 W/m2
05:23 12.0 °C 6.1 °C 1010.0 hPa NNW 9.7 km/h 19.5 km/h 67% 0.0 mm 0 W/m2
05:28 12.1 °C 6.2 °C 1010.0 hPa NW 7.2 km/h 19.5 km/h 67% 0.0 mm 0 W/m2
05:33 12.0 °C 6.1 °C 1010.0 hPa NW 8.7 km/h 15.8 km/h 67% 0.0 mm 0 W/m2
05:38 12.0 °C 6.3 °C 1010.0 hPa NNW 6.1 km/h 17.2 km/h 68% 0.0 mm 0 W/m2
05:43 12.0 °C 6.3 °C 1010.0 hPa NNW 7.2 km/h 17.2 km/h 68% 0.0 mm 0 W/m2
05:48 12.0 °C 6.5 °C 1009.7 hPa NNW 8.7 km/h 17.2 km/h 69% 0.0 mm 0 W/m2
05:53 12.0 °C 6.5 °C 1010.0 hPa NW 12.2 km/h 17.2 km/h 69% 0.0 mm 0 W/m2
05:58 12.1 °C 6.6 °C 1010.0 hPa NW 5.0 km/h 17.2 km/h 69% 0.0 mm 0 W/m2
06:03 12.0 °C 6.5 °C 1010.0 hPa NW 5.0 km/h 15.8 km/h 69% 0.0 mm 0 W/m2
06:08 11.9 °C 6.8 °C 1010.0 hPa NNW 5.0 km/h 11.1 km/h 71% 0.0 mm 0 W/m2
06:13 11.6 °C 6.7 °C 1010.0 hPa NNW 3.5 km/h 11.1 km/h 72% 0.0 mm 0 W/m2
06:18 11.4 °C 6.6 °C 1010.0 hPa NW 1.1 km/h 7.2 km/h 72% 0.0 mm 0 W/m2
06:23 11.3 °C 6.7 °C 1010.0 hPa Calm   6.1 km/h 73% 0.0 mm 0 W/m2
06:28 11.1 °C 6.4 °C 1010.4 hPa Calm   5.0 km/h 73% 0.0 mm 0 W/m2
06:33 11.1 °C 6.4 °C 1010.0 hPa NW 1.1 km/h 3.5 km/h 73% 0.0 mm 2 W/m2
06:38 10.9 °C 6.7 °C 1010.0 hPa Calm   3.5 km/h 75% 0.0 mm 5 W/m2
06:43 10.8 °C 6.6 °C 1010.4 hPa Calm   2.6 km/h 75% 0.0 mm 9 W/m2
06:48 10.6 °C 6.6 °C 1010.4 hPa Calm   1.1 km/h 76% 0.0 mm 18 W/m2
06:53 10.7 °C 6.8 °C 1010.4 hPa Calm   1.1 km/h 77% 0.0 mm 26 W/m2
06:58 10.9 °C 7.1 °C 1010.0 hPa Calm     77% 0.0 mm 74 W/m2
07:03 11.5 °C 7.4 °C 1010.0 hPa Calm   2.6 km/h 76% 0.0 mm 90 W/m2
07:08 12.1 °C 7.4 °C 1010.4 hPa Calm   2.6 km/h 73% 0.0 mm 102 W/m2
07:13 12.6 °C 7.7 °C 1010.4 hPa Calm   2.6 km/h 72% 0.0 mm 43 W/m2
07:18 12.4 °C 7.3 °C 1010.4 hPa NNW 1.1 km/h 3.5 km/h 71% 0.0 mm 67 W/m2
07:23 12.2 °C 7.3 °C 1010.4 hPa NNW 5.0 km/h 7.2 km/h 72% 0.0 mm 98 W/m2
07:28 12.3 °C 7.6 °C 1010.4 hPa NNW 2.6 km/h 8.7 km/h 73% 0.0 mm 64 W/m2
07:33 12.4 °C 7.7 °C 1010.4 hPa NNW 2.6 km/h 8.7 km/h 73% 0.0 mm 110 W/m2
07:38 13.0 °C 8.3 °C 1010.4 hPa Calm   8.7 km/h 73% 0.0 mm 149 W/m2
07:43 13.8 °C 8.8 °C 1010.7 hPa Calm   5.0 km/h 72% 0.0 mm 151 W/m2
07:48 14.7 °C 9.1 °C 1010.7 hPa Calm   2.6 km/h 69% 0.0 mm 158 W/m2
07:53 15.3 °C 9.0 °C 1010.7 hPa Calm   2.6 km/h 66% 0.0 mm 180 W/m2
07:58 15.5 °C 8.5 °C 1010.7 hPa NW 1.1 km/h 6.1 km/h 63% 0.0 mm 198 W/m2
08:03 15.2 °C 8.2 °C 1010.7 hPa NNW 1.1 km/h 6.1 km/h 63% 0.0 mm 175 W/m2
08:08 15.4 °C 8.4 °C 1010.7 hPa Calm   5.0 km/h 63% 0.0 mm 216 W/m2
08:13 15.7 °C 8.7 °C 1010.7 hPa NW 1.1 km/h 9.7 km/h 63% 0.0 mm 172 W/m2
08:18 15.9 °C 8.6 °C 1011.1 hPa Calm   9.7 km/h 62% 0.0 mm 210 W/m2
08:23 16.1 °C 8.6 °C 1011.4 hPa North 3.5 km/h 7.2 km/h 61% 0.0 mm 161 W/m2
08:28 16.2 °C 8.9 °C 1011.4 hPa NNW 1.1 km/h 7.2 km/h 62% 0.0 mm 158 W/m2
08:33 15.7 °C 8.7 °C 1011.4 hPa NNW 2.6 km/h 6.1 km/h 63% 0.0 mm 170 W/m2
08:38 15.4 °C 8.6 °C 1011.4 hPa NNW 1.1 km/h 7.2 km/h 64% 0.0 mm 252 W/m2
08:43 15.8 °C 9.0 °C 1011.1 hPa NNW 2.6 km/h 7.2 km/h 64% 0.0 mm 188 W/m2
08:48 16.0 °C 8.9 °C 1011.4 hPa Calm   6.1 km/h 63% 0.0 mm 215 W/m2
08:53 16.3 °C 9.3 °C 1011.4 hPa NNW 1.1 km/h 8.7 km/h 63% 0.0 mm 215 W/m2
08:59 16.4 °C 9.3 °C 1011.4 hPa Calm   8.7 km/h 63% 0.0 mm 193 W/m2
09:04 16.9 °C 9.8 °C 1011.7 hPa Calm   6.1 km/h 63% 0.0 mm 272 W/m2
09:09 17.5 °C 9.9 °C 1011.7 hPa Calm   2.6 km/h 61% 0.0 mm 259 W/m2
09:14 17.6 °C 9.2 °C 1011.7 hPa NW 1.1 km/h 5.0 km/h 58% 0.0 mm 281 W/m2
09:19 17.5 °C 8.4 °C 1012.1 hPa NW 6.1 km/h 9.7 km/h 55% 0.0 mm 270 W/m2
09:24 17.3 °C 8.4 °C 1011.7 hPa NNW 6.1 km/h 9.7 km/h 56% 0.0 mm 185 W/m2
09:29 16.9 °C 9.1 °C 1011.7 hPa NW 6.1 km/h 13.4 km/h 60% 0.0 mm 181 W/m2
09:34 16.8 °C 9.0 °C 1012.1 hPa NW 1.1 km/h 13.4 km/h 60% 0.0 mm 248 W/m2
09:39 17.2 °C 9.6 °C 1012.1 hPa WNW 6.1 km/h 12.2 km/h 61% 0.0 mm 343 W/m2
09:44 17.9 °C 10.1 °C 1012.1 hPa WNW 2.6 km/h 11.1 km/h 60% 0.0 mm 387 W/m2
09:49 18.4 °C 9.5 °C 1012.1 hPa WNW 11.1 km/h 17.2 km/h 56% 0.0 mm 431 W/m2
09:54 18.2 °C 9.0 °C 1012.1 hPa NW 9.7 km/h 17.2 km/h 55% 0.0 mm 404 W/m2
09:59 18.2 °C 9.0 °C 1012.1 hPa NW 6.1 km/h 17.2 km/h 55% 0.0 mm 398 W/m2
10:04 18.4 °C 9.2 °C 1012.1 hPa NW 13.4 km/h 18.3 km/h 55% 0.0 mm 382 W/m2
10:09 18.7 °C 9.5 °C 1012.4 hPa Calm   18.3 km/h 55% 0.0 mm 610 W/m2
10:14 19.3 °C 9.2 °C 1012.1 hPa WNW 5.0 km/h 18.3 km/h 52% 0.0 mm 144 W/m2
10:19 18.4 °C 8.9 °C 1012.1 hPa WNW 3.5 km/h 11.1 km/h 54% 0.0 mm 153 W/m2
10:24 17.6 °C 8.4 °C 1012.1 hPa WSW 8.7 km/h 14.8 km/h 55% 0.0 mm 125 W/m2
10:29 16.8 °C 8.7 °C 1012.1 hPa SW 2.6 km/h 14.8 km/h 59% 0.0 mm 154 W/m2
10:34 16.9 °C 9.6 °C 1012.1 hPa SW 6.1 km/h 14.8 km/h 62% 0.0 mm 150 W/m2
10:39 16.6 °C 9.6 °C 1011.7 hPa SSW 5.0 km/h 13.4 km/h 63% 0.0 mm 178 W/m2
10:44 16.6 °C 10.2 °C 1012.1 hPa SW 5.0 km/h 13.4 km/h 66% 0.0 mm 201 W/m2
10:49 16.5 °C 9.9 °C 1012.1 hPa SW 9.7 km/h 15.8 km/h 65% 0.0 mm 349 W/m2
10:54 16.5 °C 10.1 °C 1012.1 hPa SSW 9.7 km/h 17.2 km/h 66% 0.0 mm 252 W/m2
10:59 16.5 °C 10.1 °C 1012.1 hPa SSW 12.2 km/h 18.3 km/h 66% 0.0 mm 227 W/m2
11:04 16.6 °C 10.2 °C 1012.1 hPa SW 20.9 km/h 27.0 km/h 66% 0.0 mm 644 W/m2
11:09 16.9 °C 10.3 °C 1012.1 hPa SW 17.2 km/h 27.0 km/h 65% 0.0 mm 762 W/m2
11:14 17.2 °C 10.3 °C 1012.1 hPa SW 17.2 km/h 27.0 km/h 64% 0.0 mm 739 W/m2
11:19 17.8 °C 10.7 °C 1012.1 hPa WSW 12.2 km/h 25.6 km/h 63% 0.0 mm 269 W/m2
11:24 16.9 °C 9.6 °C 1011.7 hPa SW 11.1 km/h 27.0 km/h 62% 0.0 mm 689 W/m2
11:29 16.6 °C 10.0 °C 1012.1 hPa SSW 14.8 km/h 27.0 km/h 65% 0.0 mm 640 W/m2
11:34 17.4 °C 10.1 °C 1011.7 hPa SSW 12.2 km/h 21.9 km/h 62% 0.0 mm 640 W/m2
11:39 17.3 °C 9.7 °C 1011.7 hPa SW 9.7 km/h 21.9 km/h 61% 0.0 mm 598 W/m2
11:44 17.0 °C 8.9 °C 1011.7 hPa SW 14.8 km/h 25.6 km/h 59% 0.0 mm 158 W/m2
11:49 17.2 °C 9.1 °C 1011.7 hPa SW 14.8 km/h 28.0 km/h 59% 0.0 mm 731 W/m2
11:54 17.2 °C 8.6 °C 1012.1 hPa SW 14.8 km/h 29.4 km/h 57% 0.0 mm 556 W/m2
11:59 16.9 °C 9.3 °C 1012.1 hPa SW 17.2 km/h 29.4 km/h 61% 0.0 mm 783 W/m2
12:04 17.2 °C 9.6 °C 1011.7 hPa SW 15.8 km/h 23.3 km/h 61% 0.0 mm 216 W/m2
12:09 16.9 °C 9.3 °C 1012.1 hPa SSW 17.2 km/h 25.6 km/h 61% 0.0 mm 400 W/m2
12:14 16.6 °C 8.6 °C 1012.1 hPa SSW 21.9 km/h 33.1 km/h 59% 0.0 mm 310 W/m2
12:19 16.5 °C 8.7 °C 1012.1 hPa SSW 25.6 km/h 37.8 km/h 60% 0.0 mm 201 W/m2
12:24 15.9 °C 8.6 °C 1012.1 hPa SW 20.9 km/h 37.8 km/h 62% 0.0 mm 149 W/m2
12:29 15.6 °C 8.6 °C 1012.4 hPa SW 17.2 km/h 36.7 km/h 63% 0.0 mm 160 W/m2
12:34 15.3 °C 8.1 °C 1012.4 hPa SW 23.3 km/h 39.3 km/h 62% 0.0 mm 193 W/m2
12:39 15.0 °C 7.1 °C 1012.4 hPa SW 24.5 km/h 45.4 km/h 59% 0.0 mm 185 W/m2
12:44 14.5 °C 7.6 °C 1012.4 hPa SW 13.4 km/h 45.4 km/h 63% 0.0 mm 171 W/m2
12:49 14.5 °C 8.0 °C 1012.4 hPa SW 21.9 km/h 43.9 km/h 65% 0.0 mm 129 W/m2
12:54 14.6 °C 8.1 °C 1012.4 hPa SW 17.2 km/h 35.6 km/h 65% 0.0 mm 108 W/m2
12:59 14.7 °C 8.2 °C 1012.4 hPa WSW 14.8 km/h 30.6 km/h 65% 0.0 mm 105 W/m2
13:04 14.8 °C 8.1 °C 1012.4 hPa WSW 12.2 km/h 30.6 km/h 64% 0.0 mm 98 W/m2
13:09 14.8 °C 7.8 °C 1012.4 hPa SW 13.4 km/h 33.1 km/h 63% 0.0 mm 74 W/m2
13:25 12.8 °C 8.9 °C 1013.1 hPa WSW 7.2 km/h 25.6 km/h 77% 2.3 mm 82 W/m2
13:30 12.6 °C 8.9 °C 1013.1 hPa West 2.6 km/h 24.5 km/h 78% 2.3 mm 123 W/m2
13:35 12.8 °C 8.9 °C 1012.8 hPa West 5.0 km/h 18.3 km/h 77% 2.3 mm 105 W/m2
13:40 13.0 °C 8.9 °C 1012.8 hPa WSW 6.1 km/h 18.3 km/h 76% 2.8 mm 98 W/m2
13:57 12.5 °C 8.9 °C 1013.4 hPa WNW 2.6 km/h 13.4 km/h 79% 3.0 mm 66 W/m2
14:02 12.6 °C 9.1 °C 1013.4 hPa Calm   7.2 km/h 79% 3.0 mm 84 W/m2
14:07 12.8 °C 9.3 °C 1013.1 hPa Calm   7.2 km/h 79% 3.0 mm 140 W/m2
14:12 13.4 °C 9.4 °C 1013.4 hPa SSW 23.3 km/h 31.7 km/h 77% 3.0 mm 147 W/m2
14:17 13.3 °C 10.5 °C 1013.4 hPa South 18.3 km/h 33.1 km/h 83% 1.5 mm 98 W/m2
14:22 13.0 °C 10.2 °C 1013.4 hPa South 19.5 km/h 33.1 km/h 83% 0.5 mm 70 W/m2
14:27 12.8 °C 10.0 °C 1013.8 hPa South 24.5 km/h 39.3 km/h 83% 0.5 mm 94 W/m2
14:32 12.5 °C 9.7 °C 1013.8 hPa South 24.5 km/h 39.3 km/h 83% 0.5 mm 96 W/m2
14:37 12.4 °C 9.2 °C 1013.8 hPa South 19.5 km/h 39.3 km/h 81% 0.5 mm 248 W/m2
14:42 13.0 °C 9.4 °C 1013.4 hPa South 18.3 km/h 35.6 km/h 79% 0.3 mm 611 W/m2
14:47 13.9 °C 9.9 °C 1013.4 hPa South 11.1 km/h 34.3 km/h 77% 0.0 mm 569 W/m2
14:52 14.4 °C 10.1 °C 1013.8 hPa South 19.5 km/h 31.7 km/h 75% 0.0 mm 493 W/m2
14:57 14.9 °C 10.7 °C 1013.8 hPa SSW 11.1 km/h 29.4 km/h 76% 0.0 mm 464 W/m2
15:02 15.2 °C 10.4 °C 1013.4 hPa SSW 17.2 km/h 25.6 km/h 73% 0.0 mm 469 W/m2
15:07 15.0 °C 8.9 °C 1013.4 hPa SSW 18.3 km/h 30.6 km/h 67% 0.0 mm 494 W/m2
15:12 15.0 °C 8.3 °C 1013.8 hPa SSW 14.8 km/h 30.6 km/h 64% 0.0 mm 462 W/m2
15:17 15.1 °C 8.1 °C 1013.8 hPa SW 11.1 km/h 28.0 km/h 63% 0.0 mm 445 W/m2
15:22 15.3 °C 8.6 °C 1013.8 hPa SW 9.7 km/h 25.6 km/h 64% 0.0 mm 440 W/m2
15:27 15.1 °C 8.1 °C 1013.8 hPa SW 13.4 km/h 23.3 km/h 63% 0.0 mm 427 W/m2
15:32 15.0 °C 8.5 °C 1013.8 hPa SW 11.1 km/h 24.5 km/h 65% 0.0 mm 459 W/m2
15:37 15.5 °C 9.2 °C 1013.4 hPa SW 5.0 km/h 24.5 km/h 66% 0.0 mm 454 W/m2
15:42 15.5 °C 8.7 °C 1013.4 hPa SW 6.1 km/h 20.9 km/h 64% 0.0 mm 360 W/m2
15:47 15.6 °C 8.8 °C 1013.8 hPa SW 11.1 km/h 20.9 km/h 64% 0.0 mm 298 W/m2
15:52 15.8 °C 9.0 °C 1013.4 hPa SSW 1.1 km/h 17.2 km/h 64% 0.0 mm 401 W/m2
15:57 16.1 °C 8.1 °C 1013.8 hPa SSW 7.2 km/h 17.2 km/h 59% 0.0 mm 362 W/m2
16:02 16.1 °C 8.3 °C 1013.8 hPa SW 3.5 km/h 13.4 km/h 60% 0.0 mm 402 W/m2
16:07 16.5 °C 8.4 °C 1013.8 hPa SW 2.6 km/h 9.7 km/h 59% 0.0 mm 393 W/m2
16:12 16.9 °C 8.3 °C 1013.4 hPa Calm   7.2 km/h 57% 0.0 mm 74 W/m2
16:17 17.0 °C 8.2 °C 1013.8 hPa SW 7.2 km/h 14.8 km/h 56% 0.0 mm 285 W/m2
16:22 16.6 °C 8.1 °C 1013.8 hPa Calm   14.8 km/h 57% 0.0 mm 289 W/m2
16:27 17.0 °C 8.4 °C 1013.8 hPa SSW 12.2 km/h 14.8 km/h 57% 0.0 mm 353 W/m2
16:32 17.0 °C 8.4 °C 1013.8 hPa SSW 8.7 km/h 14.8 km/h 57% 0.0 mm 343 W/m2
16:37 16.8 °C 8.7 °C 1013.8 hPa SSW 11.1 km/h 15.8 km/h 59% 0.0 mm 329 W/m2
16:42 16.6 °C 8.8 °C 1013.8 hPa SSW 6.1 km/h 15.8 km/h 60% 0.0 mm 318 W/m2
16:47 17.0 °C 8.4 °C 1013.8 hPa SSW 2.6 km/h 15.8 km/h 57% 0.0 mm 309 W/m2
16:52 17.6 °C 8.7 °C 1013.4 hPa Calm   11.1 km/h 56% 0.0 mm 296 W/m2
16:57 18.2 °C 9.3 °C 1013.8 hPa Calm   8.7 km/h 56% 0.0 mm 285 W/m2
17:02 18.1 °C 8.9 °C 1013.8 hPa Calm   5.0 km/h 55% 0.0 mm 274 W/m2
17:07 18.3 °C 8.8 °C 1013.8 hPa Calm   5.0 km/h 54% 0.0 mm 265 W/m2
17:12 18.7 °C 8.4 °C 1013.8 hPa Calm   3.5 km/h 51% 0.0 mm 251 W/m2
17:17 19.3 °C 8.3 °C 1013.8 hPa Calm   3.5 km/h 49% 0.0 mm 238 W/m2
17:22 19.8 °C 8.8 °C 1013.8 hPa Calm   2.6 km/h 49% 0.0 mm 227 W/m2
17:27 19.6 °C 8.0 °C 1013.8 hPa Calm   5.0 km/h 47% 0.0 mm 216 W/m2
17:32 19.3 °C 8.3 °C 1013.4 hPa Calm   5.0 km/h 49% 0.0 mm 203 W/m2
17:37 18.9 °C 7.9 °C 1013.8 hPa Calm   3.5 km/h 49% 0.0 mm 190 W/m2
17:42 19.0 °C 8.1 °C 1013.8 hPa Calm   3.5 km/h 49% 0.0 mm 178 W/m2
17:47 18.3 °C 7.7 °C 1013.8 hPa South 5.0 km/h 9.7 km/h 50% 0.0 mm 167 W/m2
17:52 18.0 °C 8.6 °C 1014.1 hPa South 7.2 km/h 9.7 km/h 54% 0.0 mm 100 W/m2
17:57 16.2 °C 7.7 °C 1014.1 hPa South 3.5 km/h 9.7 km/h 57% 0.0 mm 42 W/m2
18:02 15.8 °C 8.3 °C 1014.1 hPa Calm   9.7 km/h 61% 0.0 mm 88 W/m2
18:07 15.9 °C 8.4 °C 1014.1 hPa Calm   6.1 km/h 61% 0.0 mm 42 W/m2
18:12 15.8 °C 8.1 °C 1014.1 hPa Calm   3.5 km/h 60% 0.0 mm 37 W/m2
18:17 15.7 °C 7.7 °C 1014.1 hPa Calm   3.5 km/h 59% 0.0 mm 40 W/m2
18:22 15.4 °C 7.4 °C 1014.4 hPa Calm     59% 0.0 mm 34 W/m2
18:27 15.3 °C 7.3 °C 1014.4 hPa Calm     59% 0.0 mm 37 W/m2
18:32 15.2 °C 7.2 °C 1014.4 hPa Calm     59% 0.0 mm 33 W/m2
18:37 15.4 °C 7.4 °C 1014.1 hPa Calm     59% 0.0 mm 34 W/m2
18:42 15.5 °C 7.3 °C 1014.4 hPa Calm     58% 0.0 mm 28 W/m2
18:47 15.2 °C 7.0 °C 1014.4 hPa Calm     58% 0.0 mm 41 W/m2
18:52 15.4 °C 7.2 °C 1014.4 hPa Calm   1.1 km/h 58% 0.0 mm 23 W/m2
18:57 15.0 °C 7.3 °C 1014.4 hPa Calm   3.5 km/h 60% 0.0 mm 21 W/m2
19:02 14.7 °C 7.5 °C 1014.8 hPa Calm   3.5 km/h 62% 0.0 mm 17 W/m2
19:07 14.5 °C 7.3 °C 1014.8 hPa Calm   2.6 km/h 62% 0.0 mm 13 W/m2
19:12 14.3 °C 7.6 °C 1014.8 hPa Calm   2.6 km/h 64% 0.0 mm 9 W/m2
19:17 13.9 °C 7.7 °C 1014.8 hPa Calm     66% 0.0 mm 5 W/m2
19:22 13.6 °C 7.6 °C 1014.8 hPa Calm     67% 0.0 mm 2 W/m2
19:27 13.4 °C 7.6 °C 1015.1 hPa Calm     68% 0.0 mm 0 W/m2
19:32 13.1 °C 7.9 °C 1014.8 hPa Calm     71% 0.0 mm 0 W/m2
19:37 12.7 °C 8.0 °C 1015.1 hPa Calm     73% 0.0 mm 0 W/m2
19:42 12.3 °C 8.2 °C 1015.1 hPa Calm     76% 0.0 mm 0 W/m2
19:47 12.0 °C 8.1 °C 1015.1 hPa Calm     77% 0.0 mm 0 W/m2
19:52 11.8 °C 8.3 °C 1015.1 hPa Calm     79% 0.0 mm 0 W/m2
19:57 11.7 °C 8.4 °C 1015.1 hPa Calm     80% 0.0 mm 0 W/m2
20:02 11.5 °C 8.2 °C 1015.1 hPa Calm     80% 0.0 mm 0 W/m2
20:07 11.2 °C 7.9 °C 1015.1 hPa Calm     80% 0.0 mm 0 W/m2
20:12 11.0 °C 7.7 °C 1015.5 hPa Calm     80% 0.0 mm 0 W/m2
20:17 10.8 °C 7.8 °C 1015.5 hPa Calm     82% 0.0 mm 0 W/m2
20:22 10.7 °C 7.9 °C 1015.5 hPa Calm     83% 0.0 mm 0 W/m2
20:27 10.5 °C 7.9 °C 1015.5 hPa Calm     84% 0.0 mm 0 W/m2
20:32 10.4 °C 8.0 °C 1015.5 hPa Calm     85% 0.0 mm 0 W/m2
20:37 10.2 °C 7.8 °C 1015.5 hPa Calm     85% 0.0 mm 0 W/m2
20:42 10.0 °C 7.6 °C 1015.5 hPa Calm     85% 0.0 mm 0 W/m2
20:47 9.9 °C 7.8 °C 1015.5 hPa Calm     87% 0.0 mm 0 W/m2
20:52 9.8 °C 7.9 °C 1015.8 hPa Calm     88% 0.0 mm 0 W/m2
20:57 9.7 °C 8.0 °C 1015.8 hPa Calm     89% 0.0 mm 0 W/m2
21:02 9.7 °C 8.3 °C 1015.8 hPa Calm     91% 0.0 mm 0 W/m2
21:07 9.7 °C 8.4 °C 1015.8 hPa Calm     92% 0.0 mm 0 W/m2
21:12 9.7 °C 8.6 °C 1015.8 hPa Calm   1.1 km/h 93% 0.0 mm 0 W/m2
21:17 9.6 °C 8.7 °C 1015.8 hPa Calm   1.1 km/h 94% 0.0 mm 0 W/m2
21:22 9.4 °C 8.5 °C 1015.8 hPa Calm     94% 0.0 mm 0 W/m2
21:27 9.3 °C 8.4 °C 1015.8 hPa Calm     94% 0.0 mm 0 W/m2
21:32 9.2 °C 8.3 °C 1016.1 hPa Calm     94% 0.0 mm 0 W/m2
21:37 9.2 °C 8.3 °C 1016.1 hPa Calm     94% 0.0 mm 0 W/m2
21:42 9.2 °C 8.3 °C 1016.1 hPa Calm     94% 0.0 mm 0 W/m2
21:47 9.2 °C 8.3 °C 1016.1 hPa Calm   1.1 km/h 94% 0.0 mm 0 W/m2
21:52 9.1 °C 8.3 °C 1016.1 hPa Calm   1.1 km/h 95% 0.0 mm 0 W/m2
21:57 9.1 °C 8.3 °C 1015.8 hPa Calm   1.1 km/h 95% 0.0 mm 0 W/m2
22:02 9.1 °C 8.5 °C 1015.8 hPa Calm   1.1 km/h 96% 0.0 mm 0 W/m2
22:07 9.0 °C 8.6 °C 1016.1 hPa Calm   1.1 km/h 97% 0.0 mm 0 W/m2
22:12 8.9 °C 8.6 °C 1015.8 hPa Calm     98% 0.0 mm 0 W/m2
22:17 8.9 °C 8.6 °C 1015.8 hPa Calm     98% 0.0 mm 0 W/m2
22:22 8.9 °C 8.8 °C 1015.8 hPa Calm   3.5 km/h 99% 0.0 mm 0 W/m2
22:27 8.7 °C 8.6 °C 1015.8 hPa Calm   3.5 km/h 99% 0.0 mm 0 W/m2
22:32 8.7 °C 8.6 °C 1015.8 hPa Calm   3.5 km/h 99% 0.0 mm 0 W/m2
22:37 8.7 °C 8.6 °C 1015.8 hPa Calm   2.6 km/h 99% 0.0 mm 0 W/m2
22:42 8.5 °C 8.3 °C 1015.8 hPa Calm   2.6 km/h 99% 0.0 mm 0 W/m2
22:47 8.5 °C 8.3 °C 1015.8 hPa Calm   1.1 km/h 99% 0.0 mm 0 W/m2
22:52 8.5 °C 8.3 °C 1015.8 hPa Calm   2.6 km/h 99% 0.0 mm 0 W/m2
22:57 8.4 °C 8.3 °C 1015.8 hPa Calm   2.6 km/h 99% 0.0 mm 0 W/m2
23:02 8.3 °C 8.2 °C 1015.8 hPa Calm   1.1 km/h 99% 0.0 mm 0 W/m2
23:07 8.2 °C 8.1 °C 1015.8 hPa Calm   2.6 km/h 99% 0.0 mm 0 W/m2
23:12 8.1 °C 7.9 °C 1015.8 hPa Calm   3.5 km/h 99% 0.0 mm 0 W/m2
23:17 8.1 °C 7.9 °C 1015.8 hPa Calm   3.5 km/h 99% 0.0 mm 0 W/m2
23:22 8.1 °C 7.9 °C 1015.8 hPa Calm   3.5 km/h 99% 0.0 mm 0 W/m2
23:27 8.1 °C 7.9 °C 1015.8 hPa NW 1.1 km/h 2.6 km/h 99% 0.0 mm 0 W/m2
23:32 8.0 °C 7.8 °C 1015.8 hPa NW 1.1 km/h 3.5 km/h 99% 0.0 mm 0 W/m2
23:37 8.1 °C 7.9 °C 1015.8 hPa NW 1.1 km/h 5.0 km/h 99% 0.0 mm 0 W/m2
23:42 8.0 °C 7.8 °C 1015.8 hPa NW 2.6 km/h 6.1 km/h 99% 0.0 mm 0 W/m2
23:47 8.0 °C 7.8 °C 1015.8 hPa NW 2.6 km/h 6.1 km/h 99% 0.0 mm 0 W/m2
23:52 8.0 °C 7.8 °C 1015.8 hPa NW 2.6 km/h 5.0 km/h 99% 0.0 mm 0 W/m2
23:57 8.0 °C 7.8 °C 1015.5 hPa NW 2.6 km/h 5.0 km/h 99% 0.0 mm 0 W/m2
Northern Hawkes Bay. New Zealand Historic Data
Compliments of Weather Underground - 2.25 mb